Time,TemperatureF,DewpointF,PressureIn,WindDirection,WindDirectionDegrees,WindSpeedMPH,WindSpeedGustMPH,Humidity,HourlyPrecipIn,Conditions,Clouds,dailyrainin,SoftwareType,DateUTC
2013-06-09 00:02:00,56.3,50.9,30.01,East,86,2.0,6.0,82,0.00,,,0.00,meteohub,2013-06-09 05:02:00,
2013-06-09 00:07:00,56.1,50.7,30.02,East,86,1.0,6.0,82,0.00,,,0.00,meteohub,2013-06-09 05:07:00,
2013-06-09 00:12:00,56.1,50.7,30.01,East,86,2.0,6.0,82,0.00,,,0.00,meteohub,2013-06-09 05:12:00,
2013-06-09 00:17:00,56.3,50.9,30.01,East,86,1.0,5.0,82,0.00,,,0.00,meteohub,2013-06-09 05:17:00,
2013-06-09 00:22:00,56.5,51.1,30.01,East,86,2.0,5.0,82,0.00,,,0.00,meteohub,2013-06-09 05:22:00,
2013-06-09 00:27:00,56.3,50.9,30.01,East,86,0.0,5.0,82,0.00,,,0.00,meteohub,2013-06-09 05:27:00,
2013-06-09 00:32:00,56.1,50.7,30.01,East,86,1.0,5.0,82,0.00,,,0.00,meteohub,2013-06-09 05:32:00,
2013-06-09 00:37:00,56.1,50.7,30.01,East,86,0.0,3.0,82,0.00,,,0.00,meteohub,2013-06-09 05:37:00,
2013-06-09 00:42:00,55.9,50.5,30.01,East,86,0.0,2.0,82,0.00,,,0.00,meteohub,2013-06-09 05:42:00,
2013-06-09 00:48:00,55.9,50.2,30.02,East,86,1.0,3.0,81,0.00,,,0.00,meteohub,2013-06-09 05:48:00,
2013-06-09 00:53:00,56.1,50.4,30.02,East,86,2.0,3.0,81,0.00,,,0.00,meteohub,2013-06-09 05:53:00,
2013-06-09 00:58:00,55.9,50.2,30.02,East,86,3.0,5.0,81,0.00,,,0.00,meteohub,2013-06-09 05:58:00,
2013-06-09 01:03:00,55.8,50.0,30.02,East,86,2.0,5.0,81,0.00,,,0.00,meteohub,2013-06-09 06:03:00,
2013-06-09 01:09:00,55.6,49.8,30.02,East,86,1.0,5.0,81,0.00,,,0.00,meteohub,2013-06-09 06:09:00,
2013-06-09 01:14:00,55.8,49.6,30.02,East,86,0.0,5.0,80,0.00,,,0.00,meteohub,2013-06-09 06:14:00,
2013-06-09 01:19:00,55.9,49.5,30.02,East,86,2.0,3.0,79,0.00,,,0.00,meteohub,2013-06-09 06:19:00,
2013-06-09 01:24:00,56.3,49.5,30.02,East,86,1.0,6.0,78,0.00,,,0.00,meteohub,2013-06-09 06:24:00,
2013-06-09 01:29:00,56.1,48.9,30.01,East,86,2.0,6.0,77,0.00,,,0.00,meteohub,2013-06-09 06:29:00,
2013-06-09 01:34:00,55.2,48.7,30.01,East,86,2.0,6.0,79,0.00,,,0.00,meteohub,2013-06-09 06:34:00,
2013-06-09 01:40:00,54.9,49.1,30.01,East,86,3.0,5.0,81,0.00,,,0.00,meteohub,2013-06-09 06:40:00,
2013-06-09 01:45:00,54.5,49.1,30.01,East,86,3.0,6.0,82,0.00,,,0.00,meteohub,2013-06-09 06:45:00,
2013-06-09 01:50:00,54.9,49.1,30.01,East,86,3.0,6.0,81,0.00,,,0.00,meteohub,2013-06-09 06:50:00,
2013-06-09 01:55:00,55.0,48.9,30.01,East,86,6.0,7.0,80,0.00,,,0.00,meteohub,2013-06-09 06:55:00,
2013-06-09 02:01:00,55.2,48.7,30.01,East,86,5.0,8.0,79,0.00,,,0.00,meteohub,2013-06-09 07:01:00,
2013-06-09 02:06:00,55.2,48.7,30.01,East,86,5.0,8.0,79,0.00,,,0.00,meteohub,2013-06-09 07:06:00,
2013-06-09 02:11:00,54.9,48.6,30.01,East,86,3.0,8.0,79,0.00,,,0.00,meteohub,2013-06-09 07:11:00,
2013-06-09 02:17:00,55.0,48.4,30.01,East,86,6.0,8.0,78,0.00,,,0.00,meteohub,2013-06-09 07:17:00,
2013-06-09 02:22:00,55.6,48.6,30.01,East,86,2.0,7.0,77,0.00,,,0.00,meteohub,2013-06-09 07:22:00,
2013-06-09 02:27:00,55.9,48.6,30.02,East,86,2.0,7.0,76,0.00,,,0.00,meteohub,2013-06-09 07:27:00,
2013-06-09 02:32:00,56.1,48.4,30.02,East,86,5.0,7.0,75,0.00,,,0.00,meteohub,2013-06-09 07:32:00,
2013-06-09 02:37:00,56.7,48.0,30.01,East,86,3.0,7.0,73,0.00,,,0.00,meteohub,2013-06-09 07:37:00,
2013-06-09 02:42:00,56.8,48.2,30.01,East,88,8.0,9.0,73,0.00,,,0.00,meteohub,2013-06-09 07:42:00,
2013-06-09 02:47:00,56.8,47.8,30.01,East,88,6.0,9.0,72,0.00,,,0.00,meteohub,2013-06-09 07:47:00,
2013-06-09 02:52:00,56.8,47.8,30.01,East,88,2.0,9.0,72,0.00,,,0.00,meteohub,2013-06-09 07:52:00,
2013-06-09 02:57:00,56.7,48.0,30.01,East,88,6.0,9.0,73,0.00,,,0.00,meteohub,2013-06-09 07:57:00,
2013-06-09 03:02:00,56.5,48.4,30.01,East,88,6.0,9.0,74,0.00,,,0.00,meteohub,2013-06-09 08:02:00,
2013-06-09 03:07:00,56.5,48.0,30.00,East,88,6.0,7.0,73,0.00,,,0.00,meteohub,2013-06-09 08:07:00,
2013-06-09 03:12:00,56.7,48.0,30.00,East,88,2.0,7.0,73,0.00,,,0.00,meteohub,2013-06-09 08:12:00,
2013-06-09 03:18:00,56.5,47.5,30.00,East,87,5.0,7.0,72,0.00,,,0.00,meteohub,2013-06-09 08:18:00,
2013-06-09 03:23:00,56.5,48.0,30.00,East,87,2.0,8.0,73,0.00,,,0.00,meteohub,2013-06-09 08:23:00,
2013-06-09 03:28:00,56.1,47.7,30.00,East,87,3.0,8.0,73,0.00,,,0.00,meteohub,2013-06-09 08:28:00,
2013-06-09 03:33:00,55.2,48.2,29.99,East,87,3.0,8.0,77,0.00,,,0.00,meteohub,2013-06-09 08:33:00,
2013-06-09 03:38:00,54.7,48.0,30.00,East,87,3.0,7.0,78,0.00,,,0.00,meteohub,2013-06-09 08:38:00,
2013-06-09 03:43:00,54.3,48.0,30.00,East,87,1.0,7.0,79,0.00,,,0.00,meteohub,2013-06-09 08:43:00,
2013-06-09 03:49:00,54.1,47.8,30.00,East,87,0.0,6.0,79,0.00,,,0.00,meteohub,2013-06-09 08:49:00,
2013-06-09 03:54:00,54.3,48.0,30.00,East,87,5.0,5.0,79,0.00,,,0.00,meteohub,2013-06-09 08:54:00,
2013-06-09 03:59:00,55.4,48.4,29.99,East,87,6.0,7.0,77,0.00,,,0.00,meteohub,2013-06-09 08:59:00,
2013-06-09 04:04:00,56.1,48.4,29.99,East,87,6.0,8.0,75,0.00,,,0.00,meteohub,2013-06-09 09:04:00,
2013-06-09 04:09:00,56.5,48.7,30.00,East,87,6.0,8.0,75,0.00,,,0.00,meteohub,2013-06-09 09:09:00,
2013-06-09 04:15:00,56.3,48.6,30.00,East,87,2.0,8.0,75,0.00,,,0.00,meteohub,2013-06-09 09:15:00,
2013-06-09 04:20:00,56.1,48.7,29.99,East,87,3.0,8.0,76,0.00,,,0.00,meteohub,2013-06-09 09:20:00,
2013-06-09 04:25:00,56.1,48.7,29.99,East,87,5.0,7.0,76,0.00,,,0.00,meteohub,2013-06-09 09:25:00,
2013-06-09 04:30:00,56.3,48.9,30.00,East,87,2.0,7.0,76,0.00,,,0.00,meteohub,2013-06-09 09:30:00,
2013-06-09 04:35:00,56.7,48.7,30.00,East,87,0.0,7.0,75,0.00,,,0.00,meteohub,2013-06-09 09:35:00,
2013-06-09 04:40:00,56.7,48.7,29.99,East,87,1.0,7.0,75,0.00,,,0.00,meteohub,2013-06-09 09:40:00,
2013-06-09 04:45:00,56.8,48.9,30.00,East,87,0.0,6.0,75,0.00,,,0.00,meteohub,2013-06-09 09:45:00,
2013-06-09 04:51:00,56.8,48.9,30.00,East,87,1.0,6.0,75,0.00,,,0.00,meteohub,2013-06-09 09:51:00,
2013-06-09 04:56:00,56.8,48.9,30.00,East,87,1.0,2.0,75,0.00,,,0.00,meteohub,2013-06-09 09:56:00,
2013-06-09 05:01:00,57.0,49.1,30.00,East,87,0.0,2.0,75,0.00,,,0.00,meteohub,2013-06-09 10:01:00,
2013-06-09 05:06:00,57.0,49.1,30.00,East,87,0.0,3.0,75,0.00,,,0.00,meteohub,2013-06-09 10:06:00,
2013-06-09 05:12:00,57.6,48.9,30.00,East,88,5.0,5.0,73,0.00,,,0.00,meteohub,2013-06-09 10:12:00,
2013-06-09 05:17:00,57.9,48.9,30.00,East,88,3.0,8.0,72,0.00,,,0.00,meteohub,2013-06-09 10:17:00,
2013-06-09 05:22:00,57.9,48.6,30.00,East,88,5.0,8.0,71,0.00,,,0.00,meteohub,2013-06-09 10:22:00,
2013-06-09 05:27:00,57.7,49.1,30.00,East,88,3.0,8.0,73,0.00,,,0.00,meteohub,2013-06-09 10:27:00,
2013-06-09 05:32:00,57.6,49.3,30.00,East,88,6.0,8.0,74,0.00,,,0.00,meteohub,2013-06-09 10:32:00,
2013-06-09 05:38:00,57.6,48.6,30.00,East,88,1.0,7.0,72,0.00,,,0.00,meteohub,2013-06-09 10:38:00,
2013-06-09 05:43:00,57.6,48.9,29.99,East,88,1.0,7.0,73,0.00,,,0.00,meteohub,2013-06-09 10:43:00,
2013-06-09 05:48:00,57.4,48.4,30.00,East,88,0.0,7.0,72,0.00,,,0.00,meteohub,2013-06-09 10:48:00,
2013-06-09 05:53:00,57.6,48.9,30.00,East,88,0.0,6.0,73,0.00,,,0.00,meteohub,2013-06-09 10:53:00,
2013-06-09 05:58:00,57.4,48.7,30.00,East,88,0.0,3.0,73,0.00,,,0.00,meteohub,2013-06-09 10:58:00,
2013-06-09 06:03:00,57.4,49.1,30.00,East,88,0.0,2.0,74,0.00,,,0.00,meteohub,2013-06-09 11:03:00,
2013-06-09 06:08:00,57.4,48.4,30.00,East,88,2.0,2.0,72,0.00,,,0.00,meteohub,2013-06-09 11:08:00,
2013-06-09 06:14:00,57.6,48.2,29.99,East,88,5.0,5.0,71,0.00,,,0.00,meteohub,2013-06-09 11:14:00,
2013-06-09 06:19:00,57.9,48.2,30.00,East,88,2.0,8.0,70,0.00,,,0.00,meteohub,2013-06-09 11:19:00,
2013-06-09 06:24:00,57.7,48.4,30.00,East,87,2.0,8.0,71,0.00,,,0.00,meteohub,2013-06-09 11:24:00,
2013-06-09 06:29:00,57.6,48.2,30.00,East,87,3.0,8.0,71,0.00,,,0.00,meteohub,2013-06-09 11:29:00,
2013-06-09 06:35:00,57.6,48.6,30.00,East,87,2.0,8.0,72,0.00,,,0.00,meteohub,2013-06-09 11:35:00,
2013-06-09 06:40:00,57.4,48.4,30.00,East,87,6.0,8.0,72,0.00,,,0.00,meteohub,2013-06-09 11:40:00,
2013-06-09 06:45:00,57.2,48.9,29.99,East,87,2.0,8.0,74,0.00,,,0.00,meteohub,2013-06-09 11:45:00,
2013-06-09 06:50:00,56.8,49.3,29.99,East,87,2.0,7.0,76,0.00,,,0.00,meteohub,2013-06-09 11:50:00,
2013-06-09 06:55:00,56.7,49.5,29.99,East,87,1.0,7.0,77,0.00,,,0.00,meteohub,2013-06-09 11:55:00,
2013-06-09 07:00:00,56.7,50.2,29.99,East,88,6.0,6.0,79,0.00,,,0.00,meteohub,2013-06-09 12:00:00,
2013-06-09 07:06:00,56.5,50.0,29.99,East,87,3.0,6.0,79,0.00,,,0.00,meteohub,2013-06-09 12:06:00,
2013-06-09 07:11:00,56.7,49.8,29.99,East,87,3.0,6.0,78,0.00,,,0.00,meteohub,2013-06-09 12:11:00,
2013-06-09 07:16:00,56.7,49.8,29.99,East,87,2.0,6.0,78,0.00,,,0.00,meteohub,2013-06-09 12:16:00,
2013-06-09 07:21:00,56.8,50.0,29.98,East,87,3.0,6.0,78,0.00,,,0.00,meteohub,2013-06-09 12:21:00,
2013-06-09 07:27:00,56.7,50.2,29.98,East,87,8.0,8.0,79,0.00,,,0.00,meteohub,2013-06-09 12:27:00,
2013-06-09 07:32:00,56.7,50.5,29.98,East,87,5.0,8.0,80,0.00,,,0.00,meteohub,2013-06-09 12:32:00,
2013-06-09 07:37:00,56.7,50.9,29.98,East,87,7.0,8.0,81,0.00,,,0.00,meteohub,2013-06-09 12:37:00,
2013-06-09 07:42:00,56.7,50.9,29.98,East,86,9.0,9.0,81,0.00,,,0.00,meteohub,2013-06-09 12:42:00,
2013-06-09 07:47:00,56.8,50.7,29.98,East,86,6.0,9.0,80,0.00,,,0.00,meteohub,2013-06-09 12:47:00,
2013-06-09 07:52:00,57.4,50.9,29.98,East,86,6.0,9.0,79,0.00,,,0.00,meteohub,2013-06-09 12:52:00,
2013-06-09 07:58:00,57.6,51.1,29.98,East,85,5.0,9.0,79,0.00,,,0.00,meteohub,2013-06-09 12:58:00,
2013-06-09 08:03:00,57.7,51.3,29.98,East,85,6.0,9.0,79,0.00,,,0.00,meteohub,2013-06-09 13:03:00,
2013-06-09 08:08:00,58.1,51.6,29.98,East,85,6.0,9.0,79,0.00,,,0.00,meteohub,2013-06-09 13:08:00,
2013-06-09 08:13:00,58.6,52.2,29.97,East,85,6.0,9.0,79,0.00,,,0.00,meteohub,2013-06-09 13:13:00,
2013-06-09 08:18:00,59.2,52.7,29.97,East,82,7.0,9.0,79,0.00,,,0.00,meteohub,2013-06-09 13:18:00,
2013-06-09 08:24:00,59.4,52.5,29.96,ENE,77,8.0,10.0,78,0.00,,,0.00,meteohub,2013-06-09 13:24:00,
2013-06-09 08:29:00,59.7,53.2,29.96,ENE,72,8.0,10.0,79,0.00,,,0.00,meteohub,2013-06-09 13:29:00,
2013-06-09 08:34:00,60.1,53.2,29.96,ENE,70,7.0,10.0,78,0.00,,,0.00,meteohub,2013-06-09 13:34:00,
2013-06-09 08:39:00,60.4,53.2,29.96,ENE,66,8.0,10.0,77,0.00,,,0.00,meteohub,2013-06-09 13:39:00,
2013-06-09 08:44:00,61.0,54.1,29.96,ENE,66,4.0,10.0,78,0.00,,,0.00,meteohub,2013-06-09 13:44:00,
2013-06-09 08:49:00,61.3,54.5,29.96,ENE,66,5.0,10.0,78,0.00,,,0.00,meteohub,2013-06-09 13:49:00,
2013-06-09 08:54:00,61.5,54.3,29.97,ENE,63,7.0,9.0,77,0.00,,,0.00,meteohub,2013-06-09 13:54:00,
2013-06-09 08:59:00,62.1,54.7,29.96,ENE,63,5.0,8.0,77,0.00,,,0.00,meteohub,2013-06-09 13:59:00,
2013-06-09 09:05:00,62.4,55.0,29.96,ENE,63,3.0,8.0,77,0.00,,,0.00,meteohub,2013-06-09 14:05:00,
2013-06-09 09:10:00,62.6,54.9,29.96,ENE,63,3.0,8.0,76,0.00,,,0.00,meteohub,2013-06-09 14:10:00,
2013-06-09 09:15:00,62.8,55.0,29.96,ENE,63,4.0,8.0,76,0.00,,,0.00,meteohub,2013-06-09 14:15:00,
2013-06-09 09:20:00,63.0,55.2,29.96,East,80,6.0,9.0,76,0.00,,,0.00,meteohub,2013-06-09 14:20:00,
2013-06-09 09:26:00,63.0,55.6,29.96,ENE,78,2.0,11.0,77,0.00,,,0.00,meteohub,2013-06-09 14:26:00,
2013-06-09 09:31:00,63.1,55.8,29.96,ENE,78,2.0,11.0,77,0.00,,,0.00,meteohub,2013-06-09 14:31:00,
2013-06-09 09:36:00,63.3,55.9,29.96,ENE,78,0.0,11.0,77,0.00,,,0.00,meteohub,2013-06-09 14:36:00,
2013-06-09 09:41:00,63.7,56.3,29.96,ENE,78,0.0,8.0,77,0.00,,,0.00,meteohub,2013-06-09 14:41:00,
2013-06-09 09:47:00,63.9,56.5,29.96,ENE,78,3.0,8.0,77,0.00,,,0.00,meteohub,2013-06-09 14:47:00,
2013-06-09 09:52:00,64.0,56.7,29.96,ENE,78,3.0,5.0,77,0.00,,,0.00,meteohub,2013-06-09 14:52:00,
2013-06-09 09:57:00,64.6,57.6,29.96,ENE,78,2.0,5.0,78,0.00,,,0.00,meteohub,2013-06-09 14:57:00,
2013-06-09 10:02:00,64.8,57.0,29.96,ENE,78,0.0,7.0,76,0.00,,,0.00,meteohub,2013-06-09 15:02:00,
2013-06-09 10:07:00,65.5,58.1,29.96,ENE,78,3.0,7.0,77,0.00,,,0.00,meteohub,2013-06-09 15:07:00,
2013-06-09 10:12:00,65.7,57.9,29.96,ENE,78,1.0,7.0,76,0.00,,,0.00,meteohub,2013-06-09 15:12:00,
2013-06-09 10:17:00,66.0,58.3,29.96,ENE,78,4.0,7.0,76,0.00,,,0.00,meteohub,2013-06-09 15:17:00,
2013-06-09 10:22:00,66.4,58.6,29.96,ENE,78,5.0,7.0,76,0.00,,,0.00,meteohub,2013-06-09 15:22:00,
2013-06-09 10:27:00,66.9,58.8,29.95,ENE,78,5.0,8.0,75,0.00,,,0.00,meteohub,2013-06-09 15:27:00,
2013-06-09 10:32:00,67.3,59.5,29.95,East,85,8.0,10.0,76,0.00,,,0.00,meteohub,2013-06-09 15:32:00,
2013-06-09 10:37:00,67.6,58.6,29.95,East,90,5.0,10.0,73,0.00,,,0.00,meteohub,2013-06-09 15:37:00,
2013-06-09 10:42:00,68.0,59.4,29.95,East,92,6.0,10.0,74,0.00,,,0.00,meteohub,2013-06-09 15:42:00,
2013-06-09 10:47:00,68.4,59.7,29.95,East,88,6.0,9.0,74,0.00,,,0.00,meteohub,2013-06-09 15:47:00,
2013-06-09 10:52:00,69.1,60.1,29.94,East,88,7.0,9.0,73,0.00,,,0.00,meteohub,2013-06-09 15:52:00,
2013-06-09 10:57:00,69.3,60.3,29.94,East,92,5.0,9.0,73,0.00,,,0.00,meteohub,2013-06-09 15:57:00,
2013-06-09 11:03:00,69.1,59.7,29.94,East,92,8.0,11.0,72,0.00,,,0.00,meteohub,2013-06-09 16:03:00,
2013-06-09 11:08:00,69.6,60.6,29.94,ESE,102,3.0,11.0,73,0.00,,,0.00,meteohub,2013-06-09 16:08:00,
2013-06-09 11:13:00,70.5,61.0,29.94,East,95,9.0,11.0,72,0.00,,,0.00,meteohub,2013-06-09 16:13:00,
2013-06-09 11:18:00,70.7,62.1,29.94,ESE,111,10.0,13.0,74,0.00,,,0.00,meteohub,2013-06-09 16:18:00,
2013-06-09 11:23:00,71.1,61.5,29.94,East,89,8.0,13.0,72,0.00,,,0.00,meteohub,2013-06-09 16:23:00,
2013-06-09 11:29:00,71.2,61.3,29.93,East,88,6.0,13.0,71,0.00,,,0.00,meteohub,2013-06-09 16:29:00,
2013-06-09 11:34:00,72.0,62.4,29.93,East,92,8.0,12.0,72,0.00,,,0.00,meteohub,2013-06-09 16:34:00,
2013-06-09 11:39:00,72.5,62.6,29.93,ESE,117,7.0,14.0,71,0.00,,,0.00,meteohub,2013-06-09 16:39:00,
2013-06-09 11:44:00,72.9,62.4,29.93,ESE,105,10.0,14.0,70,0.00,,,0.00,meteohub,2013-06-09 16:44:00,
2013-06-09 11:49:00,72.7,62.8,29.93,ESE,112,10.0,14.0,71,0.00,,,0.00,meteohub,2013-06-09 16:49:00,
2013-06-09 11:55:00,73.0,63.1,29.93,ESE,103,11.0,13.0,71,0.00,,,0.00,meteohub,2013-06-09 16:55:00,
2013-06-09 12:00:00,73.2,62.8,29.93,SE,134,7.0,14.0,70,0.00,,,0.00,meteohub,2013-06-09 17:00:00,
2013-06-09 12:05:00,74.1,63.7,29.93,ESE,119,12.0,14.0,70,0.00,,,0.00,meteohub,2013-06-09 17:05:00,
2013-06-09 12:10:00,74.1,63.3,29.92,SE,127,7.0,16.0,69,0.00,,,0.00,meteohub,2013-06-09 17:10:00,
2013-06-09 12:16:00,73.8,62.6,29.92,ESE,121,7.0,16.0,68,0.00,,,0.00,meteohub,2013-06-09 17:16:00,
2013-06-09 12:21:00,73.9,62.2,29.92,ESE,103,7.0,16.0,67,0.00,,,0.00,meteohub,2013-06-09 17:21:00,
2013-06-09 12:26:00,73.9,63.1,29.92,East,89,8.0,16.0,69,0.00,,,0.00,meteohub,2013-06-09 17:26:00,
2013-06-09 12:31:00,74.3,62.6,29.92,ESE,104,11.0,14.0,67,0.00,,,0.00,meteohub,2013-06-09 17:31:00,
2013-06-09 12:36:00,74.5,63.1,29.91,East,89,14.0,15.0,68,0.00,,,0.00,meteohub,2013-06-09 17:36:00,
2013-06-09 12:42:00,74.7,63.3,29.91,ESE,120,7.0,15.0,68,0.00,,,0.00,meteohub,2013-06-09 17:42:00,
2013-06-09 12:47:00,75.0,63.3,29.91,East,98,8.0,15.0,67,0.00,,,0.00,meteohub,2013-06-09 17:47:00,
2013-06-09 12:52:00,75.0,62.1,29.91,East,84,17.0,17.0,64,0.00,,,0.00,meteohub,2013-06-09 17:52:00,
2013-06-09 12:57:00,75.6,63.0,29.91,East,87,10.0,19.0,65,0.00,,,0.00,meteohub,2013-06-09 17:57:00,
2013-06-09 13:02:00,75.7,63.5,29.91,ESE,110,10.0,19.0,66,0.00,,,0.00,meteohub,2013-06-09 18:02:00,
2013-06-09 13:07:00,75.6,62.6,29.90,East,97,7.0,19.0,64,0.00,,,0.00,meteohub,2013-06-09 18:07:00,
2013-06-09 13:12:00,75.6,62.6,29.90,East,84,6.0,17.0,64,0.00,,,0.00,meteohub,2013-06-09 18:12:00,
2013-06-09 13:17:00,75.4,62.8,29.90,ESE,103,10.0,17.0,65,0.00,,,0.00,meteohub,2013-06-09 18:17:00,
2013-06-09 13:22:00,75.4,62.8,29.90,East,91,10.0,17.0,65,0.00,,,0.00,meteohub,2013-06-09 18:22:00,
2013-06-09 13:27:00,75.9,61.9,29.90,East,96,11.0,17.0,62,0.00,,,0.00,meteohub,2013-06-09 18:27:00,
2013-06-09 13:32:00,75.9,61.9,29.89,SE,128,11.0,17.0,62,0.00,,,0.00,meteohub,2013-06-09 18:32:00,
2013-06-09 13:38:00,76.3,62.8,29.89,East,93,11.0,18.0,63,0.00,,,0.00,meteohub,2013-06-09 18:38:00,
2013-06-09 13:43:00,76.6,61.2,29.89,ESE,113,11.0,18.0,59,0.00,,,0.00,meteohub,2013-06-09 18:43:00,
2013-06-09 13:48:00,75.4,60.4,29.89,East,93,16.0,18.0,60,0.00,,,0.00,meteohub,2013-06-09 18:48:00,
2013-06-09 13:53:00,75.0,61.2,29.89,ESE,113,12.0,19.0,62,0.00,,,0.00,meteohub,2013-06-09 18:53:00,
2013-06-09 13:58:00,75.7,60.8,29.89,ESE,113,11.0,20.0,60,0.00,,,0.00,meteohub,2013-06-09 18:58:00,
2013-06-09 14:04:00,75.9,60.1,29.88,ESE,115,13.0,20.0,58,0.00,,,0.00,meteohub,2013-06-09 19:04:00,
2013-06-09 14:09:00,75.6,60.6,29.88,East,87,13.0,20.0,60,0.00,,,0.00,meteohub,2013-06-09 19:09:00,
2013-06-09 14:14:00,75.2,60.8,29.88,SE,128,12.0,18.0,61,0.00,,,0.00,meteohub,2013-06-09 19:14:00,
2013-06-09 14:19:00,74.7,59.9,29.88,East,92,9.0,18.0,60,0.00,,,0.00,meteohub,2013-06-09 19:19:00,
2013-06-09 14:24:00,74.1,60.8,29.88,ESE,106,12.0,18.0,63,0.00,,,0.00,meteohub,2013-06-09 19:24:00,
2013-06-09 14:29:00,73.8,61.3,29.88,ESE,113,9.0,19.0,65,0.00,,,0.00,meteohub,2013-06-09 19:29:00,
2013-06-09 14:35:00,73.6,61.5,29.88,ESE,109,10.0,19.0,66,0.00,,,0.00,meteohub,2013-06-09 19:35:00,
2013-06-09 14:40:00,73.4,61.3,29.88,ESE,107,10.0,18.0,66,0.00,,,0.00,meteohub,2013-06-09 19:40:00,
2013-06-09 14:45:00,73.6,61.9,29.87,East,101,13.0,18.0,67,0.00,,,0.00,meteohub,2013-06-09 19:45:00,
2013-06-09 14:50:00,73.8,62.1,29.87,ESE,106,10.0,18.0,67,0.00,,,0.00,meteohub,2013-06-09 19:50:00,
2013-06-09 14:55:00,73.8,63.0,29.87,ESE,106,9.0,19.0,69,0.00,,,0.00,meteohub,2013-06-09 19:55:00,
2013-06-09 15:01:00,73.9,62.8,29.87,East,96,9.0,19.0,68,0.00,,,0.00,meteohub,2013-06-09 20:01:00,
2013-06-09 15:06:00,74.8,64.0,29.87,ESE,108,10.0,19.0,69,0.00,,,0.00,meteohub,2013-06-09 20:06:00,
2013-06-09 15:12:00,74.8,63.1,29.87,ESE,107,11.0,16.0,67,0.00,,,0.00,meteohub,2013-06-09 20:12:00,
2013-06-09 15:17:00,74.7,63.3,29.87,ESE,102,13.0,19.0,68,0.00,,,0.00,meteohub,2013-06-09 20:17:00,
2013-06-09 15:22:00,73.8,62.1,29.86,ESE,110,11.0,19.0,67,0.00,,,0.00,meteohub,2013-06-09 20:22:00,
2013-06-09 15:27:00,73.2,62.8,29.86,ESE,103,16.0,21.0,70,0.00,,,0.00,meteohub,2013-06-09 20:27:00,
2013-06-09 15:32:00,72.9,62.1,29.86,East,92,15.0,21.0,69,0.00,,,0.00,meteohub,2013-06-09 20:32:00,
2013-06-09 15:37:00,72.9,63.0,29.85,ESE,107,10.0,20.0,71,0.00,,,0.00,meteohub,2013-06-09 20:37:00,
2013-06-09 15:42:00,72.7,62.8,29.86,ESE,111,12.0,21.0,71,0.00,,,0.00,meteohub,2013-06-09 20:42:00,
2013-06-09 15:47:00,72.3,62.8,29.86,ESE,107,9.0,21.0,72,0.00,,,0.00,meteohub,2013-06-09 20:47:00,
2013-06-09 15:52:00,72.3,63.1,29.86,East,94,8.0,20.0,73,0.00,,,0.00,meteohub,2013-06-09 20:52:00,
2013-06-09 15:58:00,72.5,63.3,29.85,ENE,73,10.0,20.0,73,0.00,,,0.00,meteohub,2013-06-09 20:58:00,
2013-06-09 16:03:00,72.7,63.1,29.85,ESE,119,14.0,20.0,72,0.00,,,0.00,meteohub,2013-06-09 21:03:00,
2013-06-09 16:08:00,72.5,62.6,29.85,East,98,14.0,17.0,71,0.00,,,0.00,meteohub,2013-06-09 21:08:00,
2013-06-09 16:13:00,72.5,62.6,29.85,ESE,112,17.0,19.0,71,0.00,,,0.00,meteohub,2013-06-09 21:13:00,
2013-06-09 16:18:00,72.7,62.8,29.85,East,92,13.0,21.0,71,0.00,,,0.00,meteohub,2013-06-09 21:18:00,
2013-06-09 16:24:00,72.9,63.0,29.85,ESE,114,13.0,21.0,71,0.00,,,0.00,meteohub,2013-06-09 21:24:00,
2013-06-09 16:29:00,72.7,62.8,29.85,ESE,105,11.0,21.0,71,0.00,,,0.00,meteohub,2013-06-09 21:29:00,
2013-06-09 16:34:00,72.9,62.4,29.84,ESE,108,12.0,18.0,70,0.00,,,0.00,meteohub,2013-06-09 21:34:00,
2013-06-09 16:39:00,72.7,62.8,29.84,ESE,107,10.0,21.0,71,0.00,,,0.00,meteohub,2013-06-09 21:39:00,
2013-06-09 16:45:00,72.7,62.8,29.84,ENE,72,9.0,21.0,71,0.00,,,0.00,meteohub,2013-06-09 21:45:00,
2013-06-09 16:50:00,72.5,62.2,29.84,ESE,106,12.0,17.0,70,0.00,,,0.00,meteohub,2013-06-09 21:50:00,
2013-06-09 16:55:00,72.3,62.1,29.84,East,88,9.0,17.0,70,0.00,,,0.00,meteohub,2013-06-09 21:55:00,
2013-06-09 17:00:00,72.3,61.5,29.84,ESE,104,9.0,17.0,69,0.00,,,0.00,meteohub,2013-06-09 22:00:00,
2013-06-09 17:05:00,72.3,62.1,29.84,East,94,10.0,17.0,70,0.00,,,0.00,meteohub,2013-06-09 22:05:00,
2013-06-09 17:11:00,72.3,61.2,29.84,ESE,110,11.0,18.0,68,0.00,,,0.00,meteohub,2013-06-09 22:11:00,
2013-06-09 17:16:00,72.1,61.0,29.84,ESE,110,8.0,18.0,68,0.00,,,0.00,meteohub,2013-06-09 22:16:00,
2013-06-09 17:21:00,72.1,61.0,29.84,East,95,15.0,18.0,68,0.00,,,0.00,meteohub,2013-06-09 22:21:00,
2013-06-09 17:26:00,72.1,60.6,29.84,ESE,121,12.0,19.0,67,0.00,,,0.00,meteohub,2013-06-09 22:26:00,
2013-06-09 17:31:00,72.3,61.2,29.84,ESE,118,10.0,19.0,68,0.00,,,0.00,meteohub,2013-06-09 22:31:00,
2013-06-09 17:37:00,72.7,61.2,29.84,SE,134,10.0,16.0,67,0.00,,,0.00,meteohub,2013-06-09 22:37:00,
2013-06-09 17:42:00,72.9,61.7,29.84,East,94,8.0,16.0,68,0.00,,,0.00,meteohub,2013-06-09 22:42:00,
2013-06-09 17:47:00,72.7,61.5,29.83,East,86,8.0,18.0,68,0.00,,,0.00,meteohub,2013-06-09 22:47:00,
2013-06-09 17:52:00,72.7,61.9,29.83,East,93,13.0,18.0,69,0.00,,,0.00,meteohub,2013-06-09 22:52:00,
2013-06-09 17:57:00,72.7,61.2,29.83,SE,132,11.0,17.0,67,0.00,,,0.00,meteohub,2013-06-09 22:57:00,
2013-06-09 18:02:00,72.9,61.7,29.83,ESE,119,9.0,20.0,68,0.00,,,0.00,meteohub,2013-06-09 23:02:00,
2013-06-09 18:08:00,72.7,61.2,29.83,ENE,76,11.0,20.0,67,0.00,,,0.00,meteohub,2013-06-09 23:08:00,
2013-06-09 18:13:00,72.5,61.0,29.83,SE,125,6.0,20.0,67,0.00,,,0.00,meteohub,2013-06-09 23:13:00,
2013-06-09 18:18:00,72.3,61.2,29.83,ESE,103,10.0,17.0,68,0.00,,,0.00,meteohub,2013-06-09 23:18:00,
2013-06-09 18:23:00,72.0,60.4,29.83,SE,126,13.0,19.0,67,0.00,,,0.00,meteohub,2013-06-09 23:23:00,
2013-06-09 18:29:00,72.0,61.2,29.83,ESE,123,8.0,19.0,69,0.00,,,0.00,meteohub,2013-06-09 23:29:00,
2013-06-09 18:34:00,72.1,61.3,29.83,SE,125,6.0,18.0,69,0.00,,,0.00,meteohub,2013-06-09 23:34:00,
2013-06-09 18:39:00,72.0,60.8,29.83,ESE,116,7.0,16.0,68,0.00,,,0.00,meteohub,2013-06-09 23:39:00,
2013-06-09 18:44:00,72.0,61.7,29.83,ESE,116,5.0,15.0,70,0.00,,,0.00,meteohub,2013-06-09 23:44:00,
2013-06-09 18:49:00,71.8,61.0,29.83,ESE,114,5.0,16.0,69,0.00,,,0.00,meteohub,2013-06-09 23:49:00,
2013-06-09 18:55:00,71.4,60.8,29.83,ESE,107,8.0,16.0,69,0.00,,,0.00,meteohub,2013-06-09 23:55:00,
2013-06-09 19:00:00,71.4,60.3,29.83,East,95,7.0,14.0,68,0.00,,,0.00,meteohub,2013-06-10 00:00:00,
2013-06-09 19:05:00,71.4,60.3,29.83,ESE,109,5.0,14.0,68,0.00,,,0.00,meteohub,2013-06-10 00:05:00,
2013-06-09 19:10:00,71.2,60.6,29.83,ESE,108,12.0,14.0,69,0.00,,,0.00,meteohub,2013-06-10 00:10:00,
2013-06-09 19:15:00,71.2,60.1,29.83,ESE,112,9.0,17.0,68,0.00,,,0.00,meteohub,2013-06-10 00:15:00,
2013-06-09 19:20:00,71.1,60.4,29.83,East,94,14.0,17.0,69,0.00,,,0.00,meteohub,2013-06-10 00:20:00,
2013-06-09 19:26:00,71.1,60.4,29.83,East,85,7.0,17.0,69,0.00,,,0.00,meteohub,2013-06-10 00:26:00,
2013-06-09 19:31:00,70.7,60.1,29.83,East,92,10.0,15.0,69,0.00,,,0.00,meteohub,2013-06-10 00:31:00,
2013-06-09 19:36:00,70.5,59.9,29.83,ESE,103,8.0,14.0,69,0.00,,,0.00,meteohub,2013-06-10 00:36:00,
2013-06-09 19:41:00,70.5,59.4,29.83,ESE,109,9.0,15.0,68,0.00,,,0.00,meteohub,2013-06-10 00:41:00,
2013-06-09 19:46:00,70.3,59.7,29.83,East,101,7.0,16.0,69,0.00,,,0.00,meteohub,2013-06-10 00:46:00,
2013-06-09 19:52:00,70.0,60.1,29.83,East,94,13.0,16.0,71,0.00,,,0.00,meteohub,2013-06-10 00:52:00,
2013-06-09 19:57:00,69.6,60.3,29.83,East,96,9.0,16.0,72,0.00,,,0.00,meteohub,2013-06-10 00:57:00,
2013-06-09 20:02:00,69.3,60.3,29.82,ESE,103,7.0,16.0,73,0.00,,,0.00,meteohub,2013-06-10 01:02:00,
2013-06-09 20:07:00,69.1,60.4,29.82,ESE,103,11.0,14.0,74,0.00,,,0.00,meteohub,2013-06-10 01:07:00,
2013-06-09 20:13:00,68.9,60.3,29.82,ESE,117,8.0,16.0,74,0.00,,,0.00,meteohub,2013-06-10 01:13:00,
2013-06-09 20:18:00,68.5,60.3,29.82,ESE,109,9.0,16.0,75,0.00,,,0.00,meteohub,2013-06-10 01:18:00,
2013-06-09 20:23:00,68.4,60.4,29.82,East,101,7.0,15.0,76,0.00,,,0.00,meteohub,2013-06-10 01:23:00,
2013-06-09 20:28:00,68.2,60.3,29.82,East,96,8.0,13.0,76,0.00,,,0.00,meteohub,2013-06-10 01:28:00,
2013-06-09 20:33:00,67.8,59.9,29.82,East,101,7.0,14.0,76,0.00,,,0.00,meteohub,2013-06-10 01:33:00,
2013-06-09 20:38:00,67.8,59.9,29.83,ESE,115,10.0,14.0,76,0.00,,,0.00,meteohub,2013-06-10 01:38:00,
2013-06-09 20:43:00,67.6,59.7,29.83,ESE,109,7.0,13.0,76,0.00,,,0.00,meteohub,2013-06-10 01:43:00,
2013-06-09 20:49:00,67.5,60.1,29.83,ESE,104,8.0,13.0,77,0.00,,,0.00,meteohub,2013-06-10 01:49:00,
2013-06-09 20:54:00,67.3,59.9,29.83,ESE,111,11.0,15.0,77,0.00,,,0.00,meteohub,2013-06-10 01:54:00,
2013-06-09 20:59:00,67.1,60.1,29.82,East,101,7.0,16.0,78,0.00,,,0.00,meteohub,2013-06-10 01:59:00,
2013-06-09 21:04:00,66.9,59.9,29.82,East,94,5.0,16.0,78,0.00,,,0.00,meteohub,2013-06-10 02:04:00,
2013-06-09 21:10:00,66.9,60.3,29.83,ESE,102,5.0,15.0,79,0.00,,,0.00,meteohub,2013-06-10 02:10:00,
2013-06-09 21:15:00,66.9,60.3,29.83,East,100,14.0,14.0,79,0.00,,,0.00,meteohub,2013-06-10 02:15:00,
2013-06-09 21:20:00,66.9,59.9,29.83,ESE,102,11.0,14.0,78,0.00,,,0.00,meteohub,2013-06-10 02:20:00,
2013-06-09 21:25:00,66.7,60.1,29.83,East,99,8.0,15.0,79,0.00,,,0.00,meteohub,2013-06-10 02:25:00,
2013-06-09 21:31:00,66.6,59.9,29.83,East,98,9.0,15.0,79,0.00,,,0.00,meteohub,2013-06-10 02:31:00,
2013-06-09 21:36:00,66.6,59.9,29.83,East,88,10.0,15.0,79,0.00,,,0.00,meteohub,2013-06-10 02:36:00,
2013-06-09 21:42:00,66.2,59.9,29.83,East,92,11.0,14.0,80,0.00,,,0.00,meteohub,2013-06-10 02:42:00,
2013-06-09 21:47:00,66.0,59.7,29.83,East,85,16.0,16.0,80,0.00,,,0.00,meteohub,2013-06-10 02:47:00,
2013-06-09 21:52:00,65.7,59.4,29.83,East,95,10.0,16.0,80,0.00,,,0.00,meteohub,2013-06-10 02:52:00,
2013-06-09 21:57:00,65.7,59.4,29.83,East,88,10.0,16.0,80,0.00,,,0.00,meteohub,2013-06-10 02:57:00,
2013-06-09 22:02:00,65.1,59.2,29.83,ESE,103,7.0,16.0,81,0.00,,,0.00,meteohub,2013-06-10 03:02:00,
2013-06-09 22:08:00,65.1,59.2,29.83,East,93,8.0,16.0,81,0.00,,,0.00,meteohub,2013-06-10 03:08:00,
2013-06-09 22:13:00,65.3,59.4,29.83,East,94,11.0,16.0,81,0.00,,,0.00,meteohub,2013-06-10 03:13:00,
2013-06-09 22:18:00,65.7,59.7,29.83,ESE,105,11.0,15.0,81,0.00,,,0.00,meteohub,2013-06-10 03:18:00,
2013-06-09 22:23:00,65.7,59.7,29.83,East,97,11.0,15.0,81,0.00,,,0.00,meteohub,2013-06-10 03:23:00,
2013-06-09 22:28:00,65.7,59.7,29.83,East,96,13.0,16.0,81,0.00,,,0.00,meteohub,2013-06-10 03:28:00,
2013-06-09 22:34:00,65.7,59.7,29.83,ESE,104,11.0,17.0,81,0.00,,,0.00,meteohub,2013-06-10 03:34:00,
2013-06-09 22:39:00,65.5,60.3,29.83,East,90,10.0,17.0,83,0.00,,,0.00,meteohub,2013-06-10 03:39:00,
2013-06-09 22:44:00,65.5,59.5,29.83,East,86,9.0,17.0,81,0.00,,,0.00,meteohub,2013-06-10 03:44:00,
2013-06-09 22:49:00,65.5,59.5,29.83,East,97,10.0,16.0,81,0.00,,,0.00,meteohub,2013-06-10 03:49:00,
2013-06-09 22:55:00,65.5,59.9,29.83,ESE,105,11.0,17.0,82,0.00,,,0.00,meteohub,2013-06-10 03:55:00,
2013-06-09 23:00:00,65.5,59.9,29.83,East,100,10.0,18.0,82,0.00,,,0.00,meteohub,2013-06-10 04:00:00,
2013-06-09 23:01:00,65.3,59.7,29.83,ESE,102,7.0,18.0,82,0.00,,,0.00,meteohub,2013-06-10 04:01:00,
2013-06-09 23:02:00,65.3,59.7,29.83,East,99,10.0,18.0,82,0.00,,,0.00,meteohub,2013-06-10 04:02:00,
2013-06-09 23:04:00,65.1,59.9,29.83,East,100,7.0,18.0,83,0.00,,,0.00,meteohub,2013-06-10 04:04:00,
2013-06-09 23:06:00,65.1,59.9,29.82,ESE,107,8.0,17.0,83,0.00,,,0.00,meteohub,2013-06-10 04:06:00,
2013-06-09 23:11:00,65.1,59.9,29.83,SE,127,10.0,17.0,83,0.00,,,0.00,meteohub,2013-06-10 04:11:00,
2013-06-09 23:17:00,64.9,59.7,29.83,East,97,11.0,17.0,83,0.00,,,0.00,meteohub,2013-06-10 04:17:00,
2013-06-09 23:22:00,64.9,59.9,29.83,East,94,10.0,17.0,84,0.00,,,0.00,meteohub,2013-06-10 04:22:00,
2013-06-09 23:27:00,64.9,59.9,29.83,ESE,118,9.0,16.0,84,0.00,,,0.00,meteohub,2013-06-10 04:27:00,
2013-06-09 23:32:00,65.1,60.1,29.84,SE,130,4.0,18.0,84,0.00,,,0.00,meteohub,2013-06-10 04:32:00,
2013-06-09 23:37:00,64.9,59.9,29.84,SSW,213,9.0,18.0,84,0.00,,,0.00,meteohub,2013-06-10 04:37:00,
2013-06-09 23:42:00,64.6,59.9,29.84,SSW,200,6.0,18.0,85,0.00,,,0.00,meteohub,2013-06-10 04:42:00,
2013-06-09 23:47:00,64.6,59.9,29.84,SSW,198,7.0,15.0,85,0.00,,,0.00,meteohub,2013-06-10 04:47:00,
2013-06-09 23:52:00,64.4,60.1,29.84,SSW,208,10.0,15.0,86,0.00,,,0.00,meteohub,2013-06-10 04:52:00,
2013-06-09 23:57:00,64.2,59.9,29.84,South,186,3.0,15.0,86,0.00,,,0.00,meteohub,2013-06-10 04:57:00,